Mark Center, OH (43536)

3:37 PM EST on December 21, 2014 (GMT -0500)
Defiance Memorial | Change Station
CLOSE
Current Station
Airport
Location: Defiance,
Elevation: 705 ft
Nearby Weather Stations

Elev 705 ft 41.34 °N, 84.43 °W | Updated 44 minutes ago

Overcast
Overcast
35 °F
Feels Like 31 °F
N
5
Wind Variable Wind from SSE

Today
High -- | Low -- °F
--% Chance of Precip.
Yesterday
High -- | Low -- °F
Precip. -- in
8:00 AM 5:12 PM
Waning Crescent, 0% visible
Pressure 30.25 in
Visibility 6.0 miles
Clouds Scattered Clouds 2200 ft
Overcast 5500 ft
Windchill 31 °F
Dew Point 26 °F
Humidity 70%
Rainfall 0.00 in
Snow Depth Not available.
UV 0 out of 12
Pollen .10 out of 12
Air Quality Not available.
Flu Activity Not available.
METAR KDFI 211953Z AUTO 16004KT 6SM HZ SCT022 OVC055 02/M03 A3022 RMK AO2 SLP241 T00171033 TSNO

More Conditions Fewer Conditions

Pressure 30.25 in
Visibility 6.0 miles
Clouds Scattered Clouds 2200 ft
Overcast 5500 ft
Windchill 31 °F
Dew Point 26 °F
Humidity 70%
Rainfall 0.00 in
Snow Depth Not available.
UV 0 out of 12
Pollen .10 out of 12
Air Quality Not available.
Flu Activity Not available.
METAR KDFI 211953Z AUTO 16004KT 6SM HZ SCT022 OVC055 02/M03 A3022 RMK AO2 SLP241 T00171033 TSNO

More Conditions Fewer Conditions

10-Day Weather Forecast

Almanac

Astronomy

Dec. 21, 2014 Rise Set
Actual Time
Civil Twilight
Nautical Twilight
Astronomical Twilight
Moon
Length of Visible Light
Length of Day
Tomorrow will be .
, % of the Moon is Illuminated

Today's Extremes

State Highs State Lows

Community

WunderPhotos

Upload Photos

1,779,471 photos uploaded!

WunderBlogs® & News

Nearby

Air Quality

  Air Quality AQ Index Pollutant
Not available.

Snow Depth

Station Depth Elevation

Earthquake Activity

City Distance Mag. Time & Date
Minimum magnitude displayed is 2.5.

Coastal Water Temperatures

Place Temperature

Nearby Weather Stations